createdAt,value
2018-06-15T00:00:05.966Z,14.63
2018-06-15T00:02:35.705Z,18.93
2018-06-15T00:05:04.628Z,16.40
2018-06-15T00:07:33.453Z,13.20
2018-06-15T00:10:02.859Z,21.47
2018-06-15T00:12:32.994Z,19.27
2018-06-15T00:15:02.211Z,17.60
2018-06-15T00:17:31.551Z,20.93
2018-06-15T00:20:00.887Z,26.80
2018-06-15T00:22:29.897Z,20.67
2018-06-15T00:24:59.284Z,18.70
2018-06-15T00:27:28.515Z,21.00
2018-06-15T00:29:58.145Z,19.17
2018-06-15T00:32:27.977Z,24.50
2018-06-15T00:34:57.280Z,25.50
2018-06-15T00:37:27.680Z,26.33
2018-06-15T00:39:56.944Z,31.03
2018-06-15T00:42:26.606Z,19.30
2018-06-15T00:44:56.227Z,24.67
2018-06-15T00:47:25.620Z,19.00
2018-06-15T00:49:55.190Z,15.63
2018-06-15T00:52:24.634Z,19.40
2018-06-15T00:54:53.531Z,27.00
2018-06-15T00:57:28.383Z,19.73
2018-06-15T00:59:57.370Z,30.37
2018-06-15T01:02:26.474Z,18.13
2018-06-15T01:04:56.159Z,18.53
2018-06-15T01:07:25.734Z,21.33
2018-06-15T01:09:55.330Z,24.00
2018-06-15T01:12:24.565Z,19.23
2018-06-15T01:14:53.880Z,20.90
2018-06-15T01:17:22.794Z,19.40
2018-06-15T01:19:52.561Z,21.83
2018-06-15T01:22:22.300Z,21.43
2018-06-15T01:24:51.561Z,14.93
2018-06-15T01:27:20.851Z,29.03
2018-06-15T01:29:50.187Z,19.67
2018-06-15T01:32:19.511Z,20.23
2018-06-15T01:34:48.495Z,22.13
2018-06-15T01:37:17.922Z,23.73
2018-06-15T01:39:47.151Z,21.13
2018-06-15T01:42:16.583Z,24.17
2018-06-15T01:44:46.188Z,23.60
2018-06-15T01:47:15.588Z,17.80
2018-06-15T01:49:44.828Z,24.43
2018-06-15T01:52:14.062Z,22.03
2018-06-15T01:54:44.110Z,22.17
2018-06-15T01:57:13.374Z,25.37
2018-06-15T01:59:42.485Z,24.13
2018-06-15T02:02:11.439Z,22.13
2018-06-15T02:04:40.593Z,21.67
2018-06-15T02:07:09.654Z,24.37
2018-06-15T02:09:38.938Z,18.67
2018-06-15T02:12:08.415Z,25.10
2018-06-15T02:14:38.020Z,18.07
2018-06-15T02:17:07.254Z,18.70
2018-06-15T02:19:37.400Z,23.13
2018-06-15T02:22:07.160Z,21.47
2018-06-15T02:24:37.150Z,26.27
2018-06-15T02:27:07.268Z,25.37
2018-06-15T02:29:36.646Z,38.57
2018-06-15T02:32:06.147Z,24.83
2018-06-15T02:34:36.372Z,24.93
2018-06-15T02:37:06.374Z,20.30
2018-06-15T02:39:36.405Z,27.43
2018-06-15T02:42:06.766Z,23.10
2018-06-15T02:44:36.351Z,29.23
2018-06-15T02:47:07.285Z,23.57
2018-06-15T02:49:37.742Z,22.20
2018-06-15T02:52:08.300Z,23.70
2018-06-15T02:54:38.504Z,28.20
2018-06-15T02:57:09.221Z,31.23
2018-06-15T02:59:39.304Z,30.03
2018-06-15T03:02:09.662Z,30.50
2018-06-15T03:04:40.121Z,24.03
2018-06-15T03:07:09.884Z,42.50
2018-06-15T03:09:39.911Z,39.13
2018-06-15T03:12:10.028Z,37.80
2018-06-15T03:14:40.179Z,38.10
2018-06-15T03:17:10.014Z,39.90
2018-06-15T03:19:39.953Z,35.60
2018-06-15T03:22:09.526Z,28.23
2018-06-15T03:24:40.092Z,24.87
2018-06-15T03:27:10.477Z,23.70
2018-06-15T03:29:41.185Z,26.60
2018-06-15T03:32:10.549Z,25.63
2018-06-15T03:34:40.457Z,26.10
2018-06-15T03:37:10.749Z,27.60
2018-06-15T03:39:41.331Z,29.00
2018-06-15T03:42:11.254Z,29.23
2018-06-15T03:44:41.410Z,29.30
2018-06-15T03:47:10.917Z,26.83
2018-06-15T03:49:41.030Z,33.67
2018-06-15T03:52:10.295Z,28.00
2018-06-15T03:54:40.463Z,30.70
2018-06-15T03:57:10.828Z,26.10
2018-06-15T03:59:40.258Z,27.43
2018-06-15T04:02:09.574Z,21.50
2018-06-15T04:04:39.498Z,25.27
2018-06-15T04:07:09.018Z,26.93
2018-06-15T04:09:38.863Z,24.20
2018-06-15T04:12:08.450Z,25.83
2018-06-15T04:14:39.383Z,17.40
2018-06-15T04:17:09.277Z,19.17
2018-06-15T04:19:38.429Z,21.83
2018-06-15T04:22:08.191Z,18.30
2018-06-15T04:24:37.907Z,28.30
2018-06-15T04:27:07.517Z,16.73
2018-06-15T04:29:37.841Z,21.20
2018-06-15T04:32:08.185Z,23.53
2018-06-15T04:34:37.947Z,23.50
2018-06-15T04:37:07.446Z,19.03
2018-06-15T04:39:37.035Z,22.90
2018-06-15T04:42:06.997Z,24.30
2018-06-15T04:44:37.107Z,19.17
2018-06-15T04:47:07.441Z,16.73
2018-06-15T04:49:37.549Z,25.77
2018-06-15T04:52:07.104Z,18.37
2018-06-15T04:54:37.977Z,22.43
2018-06-15T04:57:07.763Z,17.00
2018-06-15T04:59:37.300Z,20.95
2018-06-15T05:02:06.747Z,18.20
2018-06-15T05:04:36.787Z,21.07
2018-06-15T05:07:06.701Z,29.73
2018-06-15T05:09:37.132Z,17.93
2018-06-15T05:12:07.425Z,21.17
2018-06-15T05:14:38.373Z,28.43
2018-06-15T05:17:08.144Z,19.07
2018-06-15T05:19:38.326Z,20.93
2018-06-15T05:22:08.912Z,19.67
2018-06-15T05:24:38.470Z,13.83
2018-06-15T05:27:08.755Z,17.07
2018-06-15T05:29:39.434Z,22.57
2018-06-15T05:32:09.866Z,22.80
2018-06-15T05:34:39.813Z,14.33
2018-06-15T05:37:09.386Z,20.53
2018-06-15T05:39:39.664Z,17.83
2018-06-15T05:42:10.456Z,21.53
2018-06-15T05:44:40.173Z,16.20
2018-06-15T05:47:09.583Z,23.40
2018-06-15T05:49:39.700Z,16.67
2018-06-15T05:52:09.149Z,19.40
2018-06-15T05:54:39.414Z,23.23
2018-06-15T05:57:09.665Z,42.67
2018-06-15T05:59:39.541Z,26.83
2018-06-15T06:02:10.297Z,30.47
2018-06-15T06:04:40.438Z,36.57
2018-06-15T06:07:09.839Z,25.50
2018-06-15T06:09:39.779Z,36.53
2018-06-15T06:15:03.095Z,30.90
2018-06-15T06:17:33.231Z,35.10
2018-06-15T06:20:02.655Z,34.60
2018-06-15T06:22:32.120Z,30.60
2018-06-15T06:25:02.059Z,31.87
2018-06-15T06:27:31.589Z,29.40
2018-06-15T06:30:02.092Z,28.77
2018-06-15T06:32:31.463Z,29.07
2018-06-15T06:35:00.940Z,27.47
2018-06-15T06:37:30.724Z,26.27
2018-06-15T06:40:00.326Z,32.20
2018-06-15T06:42:30.054Z,26.73
2018-06-15T06:45:00.057Z,32.30
2018-06-15T06:47:30.560Z,28.27
2018-06-15T06:50:00.047Z,33.40
2018-06-15T06:52:31.451Z,28.27
2018-06-15T06:55:00.483Z,24.77
2018-06-15T06:57:30.485Z,27.43
2018-06-15T07:00:00.443Z,24.17
2018-06-15T07:02:30.280Z,29.47
2018-06-15T07:05:00.127Z,29.03
2018-06-15T07:07:30.296Z,26.27
2018-06-15T07:10:00.299Z,30.00
2018-06-15T07:12:30.074Z,33.53
2018-06-15T07:14:59.921Z,27.00
2018-06-15T07:17:29.534Z,24.87
2018-06-15T07:19:59.048Z,26.80
2018-06-15T07:22:28.886Z,27.40
2018-06-15T07:24:58.636Z,25.40
2018-06-15T07:27:28.167Z,27.47
2018-06-15T07:29:57.547Z,24.57
2018-06-15T07:32:27.414Z,26.57
2018-06-15T07:34:57.680Z,28.10
2018-06-15T07:37:27.327Z,27.17
2018-06-15T07:39:57.135Z,25.47
2018-06-15T07:42:26.638Z,23.13
2018-06-15T07:44:55.788Z,21.93
2018-06-15T07:47:25.230Z,25.97
2018-06-15T07:49:55.054Z,26.57
2018-06-15T07:52:24.342Z,20.80
2018-06-15T07:54:53.942Z,38.00
2018-06-15T07:57:23.610Z,30.80
2018-06-15T07:59:53.159Z,26.57
2018-06-15T08:02:23.045Z,27.37
2018-06-15T08:04:52.503Z,26.30
2018-06-15T08:07:21.946Z,22.80
2018-06-15T08:09:51.308Z,29.63
2018-06-15T08:12:20.769Z,26.43
2018-06-15T08:14:50.283Z,23.77
2018-06-15T08:17:20.415Z,29.40
2018-06-15T08:19:49.573Z,28.77
2018-06-15T08:22:18.913Z,21.30
2018-06-15T08:24:48.567Z,26.70
2018-06-15T08:27:17.631Z,24.23
2018-06-15T08:29:47.188Z,24.27
2018-06-15T08:32:16.501Z,20.23
2018-06-15T08:34:46.047Z,18.90
2018-06-15T08:37:15.751Z,19.70
2018-06-15T08:39:45.073Z,24.20
2018-06-15T08:42:19.185Z,22.30
2018-06-15T08:44:48.609Z,21.93
2018-06-15T08:47:18.581Z,24.53
2018-06-15T08:49:47.889Z,20.20
2018-06-15T08:52:17.434Z,20.10
2018-06-15T08:54:46.523Z,17.93
2018-06-15T08:57:15.571Z,18.13
2018-06-15T08:59:44.870Z,22.17
2018-06-15T09:02:14.247Z,21.10
2018-06-15T09:04:43.495Z,21.40
2018-06-15T09:07:12.782Z,19.63
2018-06-15T09:09:41.888Z,24.87
2018-06-15T09:12:10.689Z,18.97
2018-06-15T09:14:39.688Z,17.30
2018-06-15T09:17:09.258Z,16.97
2018-06-15T09:19:38.794Z,21.77
2018-06-15T09:22:08.281Z,18.40
2018-06-15T09:24:37.349Z,20.90
2018-06-15T09:27:07.001Z,17.67
2018-06-15T09:29:36.352Z,20.07
2018-06-15T09:32:05.837Z,21.23
2018-06-15T09:34:35.215Z,20.17
2018-06-15T09:37:04.850Z,15.17
2018-06-15T09:39:34.866Z,14.13
2018-06-15T09:42:04.219Z,20.80
2018-06-15T09:44:33.607Z,20.13
2018-06-15T09:47:02.327Z,13.40
2018-06-15T09:49:31.871Z,14.40
2018-06-15T09:52:01.276Z,22.87
2018-06-15T09:54:30.651Z,15.30
2018-06-15T09:57:00.126Z,20.03
2018-06-15T09:59:28.382Z,17.63
2018-06-15T10:01:56.598Z,15.63
2018-06-15T10:04:25.188Z,14.77
2018-06-15T10:06:54.002Z,12.73
2018-06-15T10:09:22.438Z,13.70
2018-06-15T10:11:50.680Z,13.57
2018-06-15T10:14:19.290Z,11.23
2018-06-15T10:16:47.789Z,21.60
2018-06-15T10:19:16.444Z,12.23
2018-06-15T10:21:44.922Z,14.73
2018-06-15T10:24:13.452Z,9.70
2018-06-15T10:26:42.171Z,13.30
2018-06-15T10:29:10.813Z,13.13
2018-06-15T10:31:39.368Z,16.03
2018-06-15T10:34:08.390Z,17.73
2018-06-15T10:36:36.729Z,12.63
2018-06-15T10:39:07.750Z,10.07
2018-06-15T10:41:36.362Z,7.53
2018-06-15T10:44:05.150Z,12.13
2018-06-15T10:46:34.237Z,11.00
2018-06-15T10:49:02.834Z,16.40
2018-06-15T10:51:31.709Z,8.33
2018-06-15T10:54:00.339Z,8.33
2018-06-15T10:56:28.918Z,14.60
2018-06-15T10:58:57.131Z,15.73
2018-06-15T11:01:25.698Z,14.40
2018-06-15T11:03:54.434Z,15.53
2018-06-15T11:06:23.204Z,19.50
2018-06-15T11:08:52.933Z,14.93
2018-06-15T11:11:22.372Z,18.33
2018-06-15T11:13:51.943Z,12.83
2018-06-15T11:16:21.564Z,10.13
2018-06-15T11:18:51.395Z,7.27
2018-06-15T11:21:20.268Z,9.70
2018-06-15T11:23:49.830Z,15.60
2018-06-15T11:26:18.990Z,10.83
2018-06-15T11:28:48.314Z,16.33
2018-06-15T11:31:17.160Z,9.10
2018-06-15T11:33:46.280Z,12.10
2018-06-15T11:36:14.959Z,10.60
2018-06-15T11:38:44.282Z,12.57
2018-06-15T11:41:12.573Z,8.40
2018-06-15T11:43:40.845Z,19.50
2018-06-15T11:46:09.568Z,10.17
2018-06-15T11:48:38.195Z,7.00
2018-06-15T11:51:06.903Z,9.43
2018-06-15T11:53:35.068Z,9.13
2018-06-15T11:56:03.546Z,9.27
2018-06-15T11:58:32.129Z,7.90
2018-06-15T12:01:00.768Z,10.43
2018-06-15T12:03:29.553Z,10.80
2018-06-15T12:05:58.389Z,10.50
2018-06-15T12:08:27.014Z,6.77
2018-06-15T12:10:56.138Z,14.40
2018-06-15T12:13:24.880Z,10.20
2018-06-15T12:15:53.088Z,8.07
2018-06-15T12:18:21.632Z,8.40
2018-06-15T12:20:50.530Z,8.90
2018-06-15T12:23:18.986Z,6.03
2018-06-15T12:25:47.625Z,4.47
2018-06-15T12:28:16.402Z,8.40
2018-06-15T12:30:44.849Z,13.60
2018-06-15T12:33:13.522Z,18.70
2018-06-15T12:35:42.048Z,14.13
2018-06-15T12:38:10.566Z,15.23
2018-06-15T12:40:39.149Z,10.10
2018-06-15T12:43:07.992Z,10.57
2018-06-15T12:45:36.784Z,10.70
2018-06-15T12:48:05.557Z,16.40
2018-06-15T12:50:34.192Z,9.90
2018-06-15T12:53:03.005Z,12.70
2018-06-15T12:55:31.645Z,7.63
2018-06-15T12:57:59.905Z,9.13
2018-06-15T13:00:28.415Z,9.43
2018-06-15T13:02:57.183Z,15.30
2018-06-15T13:05:25.398Z,8.50
2018-06-15T13:07:54.212Z,16.00
2018-06-15T13:10:22.660Z,9.90
2018-06-15T13:12:50.842Z,9.77
2018-06-15T13:15:19.730Z,8.37
2018-06-15T13:17:48.524Z,8.00
2018-06-15T13:20:17.268Z,25.17
2018-06-15T13:22:45.730Z,18.53
2018-06-15T13:25:14.349Z,15.93
2018-06-15T13:27:43.029Z,9.10
2018-06-15T13:30:11.812Z,11.83
2018-06-15T13:32:40.431Z,12.40
2018-06-15T13:35:08.596Z,11.00
2018-06-15T13:37:37.184Z,12.60
2018-06-15T13:40:05.497Z,15.60
2018-06-15T13:42:34.252Z,12.73
2018-06-15T13:45:02.388Z,12.10
2018-06-15T13:47:30.915Z,15.60
2018-06-15T13:49:59.238Z,12.77
2018-06-15T13:52:27.862Z,12.10
2018-06-15T13:54:56.569Z,11.13
2018-06-15T13:57:24.902Z,11.30
2018-06-15T13:59:53.654Z,14.23
2018-06-15T14:02:22.558Z,10.60
2018-06-15T14:04:51.360Z,14.23
2018-06-15T14:07:20.466Z,15.23
2018-06-15T14:09:49.290Z,10.40
2018-06-15T14:12:18.063Z,10.70
2018-06-15T14:14:46.732Z,11.60
2018-06-15T14:17:15.261Z,12.37
2018-06-15T14:19:43.601Z,8.70
2018-06-15T14:22:12.214Z,14.73
2018-06-15T14:24:41.052Z,8.73
2018-06-15T14:27:09.666Z,15.77
2018-06-15T14:29:38.538Z,10.20
2018-06-15T14:32:07.160Z,8.83
2018-06-15T14:34:35.851Z,11.43
2018-06-15T14:37:04.509Z,11.00
2018-06-15T14:39:33.134Z,13.13
2018-06-15T14:42:01.287Z,12.53
2018-06-15T14:44:29.954Z,12.80
2018-06-15T14:46:58.961Z,11.67
2018-06-15T14:49:27.721Z,17.20
2018-06-15T14:51:56.293Z,11.63
2018-06-15T14:54:25.013Z,13.77
2018-06-15T14:56:53.591Z,11.20
2018-06-15T14:59:22.367Z,11.10
2018-06-15T15:01:51.137Z,10.73
2018-06-15T15:04:19.701Z,12.33
2018-06-15T15:06:48.600Z,11.83
2018-06-15T15:09:17.116Z,13.07
2018-06-15T15:11:46.016Z,10.77
2018-06-15T15:14:14.882Z,13.03
2018-06-15T15:16:43.327Z,27.87
2018-06-15T15:19:12.143Z,11.87
2018-06-15T15:21:40.617Z,16.10
2018-06-15T15:24:09.170Z,12.83
2018-06-15T15:26:37.761Z,13.50
2018-06-15T15:29:06.459Z,11.83
2018-06-15T15:31:34.949Z,16.30
2018-06-15T15:34:04.377Z,11.47
2018-06-15T15:36:32.857Z,11.50
2018-06-15T15:39:01.739Z,12.50
2018-06-15T15:41:30.329Z,12.53
2018-06-15T15:43:58.919Z,11.10
2018-06-15T15:46:27.471Z,13.70
2018-06-15T15:48:56.521Z,14.47
2018-06-15T15:51:25.507Z,16.87
2018-06-15T15:53:54.467Z,12.87
2018-06-15T15:56:23.013Z,13.80
2018-06-15T15:58:51.506Z,9.80
2018-06-15T16:01:20.269Z,27.03
2018-06-15T16:03:49.299Z,14.60
2018-06-15T16:06:17.864Z,10.23
2018-06-15T16:08:46.596Z,12.10
2018-06-15T16:11:15.272Z,14.80
2018-06-15T16:13:43.842Z,15.27
2018-06-15T16:16:12.419Z,17.40
2018-06-15T16:18:40.993Z,11.67
2018-06-15T16:21:09.422Z,14.20
2018-06-15T16:23:37.747Z,17.93
2018-06-15T16:26:06.482Z,21.10
2018-06-15T16:28:35.149Z,10.90
2018-06-15T16:31:03.802Z,15.03
2018-06-15T16:33:32.244Z,15.50
2018-06-15T16:36:00.697Z,10.83
2018-06-15T16:38:29.577Z,18.23
2018-06-15T16:40:58.369Z,16.30
2018-06-15T16:43:27.154Z,13.13
2018-06-15T16:45:55.753Z,16.27
2018-06-15T16:48:24.561Z,12.13
2018-06-15T16:50:53.419Z,12.30
2018-06-15T16:53:21.971Z,15.13
2018-06-15T16:55:50.807Z,9.47
2018-06-15T16:58:19.327Z,12.33
2018-06-15T17:00:48.636Z,12.63
2018-06-15T17:03:17.164Z,9.47
2018-06-15T17:05:46.082Z,23.80
2018-06-15T17:08:14.936Z,14.47
2018-06-15T17:10:43.772Z,19.03
2018-06-15T17:13:12.343Z,12.20
2018-06-15T17:15:41.261Z,12.53
2018-06-15T17:18:09.904Z,12.50
2018-06-15T17:20:38.600Z,17.00
2018-06-15T17:23:07.264Z,21.60
2018-06-15T17:25:35.920Z,15.20
2018-06-15T17:28:04.542Z,9.23
2018-06-15T17:30:33.250Z,17.87
2018-06-15T17:33:01.950Z,12.70
2018-06-15T17:35:30.640Z,14.60
2018-06-15T17:38:00.889Z,12.97
2018-06-15T17:40:29.611Z,13.37
2018-06-15T17:42:58.359Z,18.70
2018-06-15T17:45:26.959Z,15.37
2018-06-15T17:47:55.522Z,13.77
2018-06-15T17:50:24.211Z,24.13
2018-06-15T17:52:53.050Z,19.57
2018-06-15T17:55:21.616Z,19.27
2018-06-15T17:57:50.246Z,18.47
2018-06-15T18:00:18.979Z,16.53
2018-06-15T18:02:47.678Z,17.20
2018-06-15T18:05:17.408Z,13.90
2018-06-15T18:07:46.364Z,18.20
2018-06-15T18:10:15.238Z,20.70
2018-06-15T18:12:43.916Z,22.67
2018-06-15T18:15:12.623Z,21.80
2018-06-15T18:17:41.478Z,18.80
2018-06-15T18:20:10.238Z,21.73
2018-06-15T18:22:39.980Z,20.23
2018-06-15T18:25:08.726Z,32.10
2018-06-15T18:27:37.508Z,25.30
2018-06-15T18:30:07.161Z,20.70
2018-06-15T18:32:36.201Z,23.50
2018-06-15T18:35:05.212Z,19.47
2018-06-15T18:37:34.306Z,20.63
2018-06-15T18:40:03.288Z,18.20
2018-06-15T18:42:31.992Z,21.90
2018-06-15T18:45:00.326Z,20.30
2018-06-15T18:47:29.772Z,19.90
2018-06-15T18:49:58.780Z,25.20
2018-06-15T18:52:27.409Z,15.70
2018-06-15T18:54:56.099Z,15.63
2018-06-15T18:57:24.747Z,19.37
2018-06-15T18:59:53.637Z,23.40
2018-06-15T19:02:22.534Z,26.63
2018-06-15T19:04:51.471Z,23.17
2018-06-15T19:07:20.175Z,29.10
2018-06-15T19:09:48.944Z,37.30
2018-06-15T19:12:17.898Z,21.33
2018-06-15T19:14:46.769Z,30.47
2018-06-15T19:17:15.025Z,23.17
2018-06-15T19:19:44.140Z,22.60
2018-06-15T19:22:12.436Z,26.40
2018-06-15T19:24:41.178Z,27.53
2018-06-15T19:27:09.817Z,28.93
2018-06-15T19:29:38.751Z,30.43
2018-06-15T19:32:08.519Z,26.53
2018-06-15T19:34:38.872Z,25.20
2018-06-15T19:37:08.087Z,28.87
2018-06-15T19:39:38.718Z,38.23
2018-06-15T19:42:08.730Z,26.33
2018-06-15T19:44:37.450Z,29.43
2018-06-15T19:47:06.958Z,32.97
2018-06-15T19:49:36.555Z,25.43
2018-06-15T19:52:05.500Z,30.80
2018-06-15T19:54:34.689Z,30.70
2018-06-15T19:57:04.321Z,29.50
2018-06-15T19:59:32.930Z,35.90
2018-06-15T20:02:01.663Z,28.93
2018-06-15T20:04:30.999Z,36.63
2018-06-15T20:07:00.011Z,33.00
2018-06-15T20:09:30.057Z,37.80
2018-06-15T20:11:58.711Z,48.27
2018-06-15T20:14:27.872Z,28.53
2018-06-15T20:16:56.798Z,29.90
2018-06-15T20:19:25.580Z,31.27
2018-06-15T20:21:54.261Z,37.93
2018-06-15T20:24:22.841Z,33.80
2018-06-15T20:26:52.012Z,27.60
2018-06-15T20:29:20.596Z,25.33
2018-06-15T20:31:49.512Z,31.10
2018-06-15T20:34:18.124Z,32.93
2018-06-15T20:36:46.801Z,34.53
2018-06-15T20:39:15.726Z,32.57
2018-06-15T20:41:45.349Z,34.40
2018-06-15T20:44:13.814Z,39.93
2018-06-15T20:46:42.344Z,35.43
2018-06-15T20:49:10.606Z,31.90
2018-06-15T20:51:39.170Z,38.23
2018-06-15T20:54:08.094Z,35.33
2018-06-15T20:56:36.788Z,44.60
2018-06-15T20:59:05.316Z,44.63
2018-06-15T21:01:33.803Z,31.70
2018-06-15T21:04:02.519Z,34.83
2018-06-15T21:06:31.233Z,37.57
2018-06-15T21:08:59.810Z,33.77
2018-06-15T21:11:28.396Z,35.40
2018-06-15T21:13:57.250Z,33.13
2018-06-15T21:16:26.105Z,29.93
2018-06-15T21:18:54.866Z,38.87
2018-06-15T21:21:23.564Z,24.30
2018-06-15T21:23:52.139Z,30.20
2018-06-15T21:26:20.718Z,38.93
2018-06-15T21:28:49.558Z,30.27
2018-06-15T21:31:18.107Z,31.87
2018-06-15T21:33:47.280Z,30.70
2018-06-15T21:36:16.077Z,40.97
2018-06-15T21:38:44.620Z,33.87
2018-06-15T21:41:13.432Z,39.20
2018-06-15T21:43:42.680Z,28.03
2018-06-15T21:46:11.569Z,31.07
2018-06-15T21:48:40.194Z,21.40
2018-06-15T21:51:09.062Z,28.60
2018-06-15T21:53:37.908Z,30.63
2018-06-15T21:56:06.707Z,20.70
2018-06-15T21:58:35.440Z,33.27
2018-06-15T22:01:04.275Z,31.57
2018-06-15T22:03:32.810Z,30.97
2018-06-15T22:06:01.404Z,26.63
2018-06-15T22:08:29.972Z,30.93
2018-06-15T22:10:58.848Z,31.50
2018-06-15T22:13:27.340Z,28.77
2018-06-15T22:15:55.938Z,31.63
2018-06-15T22:18:24.669Z,33.20
2018-06-15T22:20:53.412Z,32.07
2018-06-15T22:23:22.306Z,40.57
2018-06-15T22:25:51.016Z,31.10
2018-06-15T22:28:19.794Z,35.87
2018-06-15T22:30:48.636Z,35.67
2018-06-15T22:33:17.358Z,33.20
2018-06-15T22:35:46.127Z,31.10
2018-06-15T22:38:14.378Z,28.03
2018-06-15T22:40:43.330Z,33.53
2018-06-15T22:43:11.897Z,35.03
2018-06-15T22:45:40.496Z,29.03
2018-06-15T22:48:09.139Z,28.87
2018-06-15T22:50:37.690Z,28.30
2018-06-15T22:53:07.067Z,32.33
2018-06-15T22:55:35.908Z,34.53
2018-06-15T22:58:04.582Z,31.77
2018-06-15T23:00:33.275Z,34.87
2018-06-15T23:03:02.125Z,28.63
2018-06-15T23:05:31.116Z,26.80
2018-06-15T23:07:59.764Z,30.87
2018-06-15T23:10:28.371Z,34.00
2018-06-15T23:12:56.881Z,31.53
2018-06-15T23:15:25.594Z,34.40
2018-06-15T23:17:54.196Z,36.60
2018-06-15T23:20:22.764Z,37.90
2018-06-15T23:22:51.351Z,36.43
2018-06-15T23:25:19.935Z,34.23
2018-06-15T23:27:48.649Z,38.13
2018-06-15T23:30:17.425Z,41.53
2018-06-15T23:32:46.219Z,33.60
2018-06-15T23:35:15.009Z,31.67
2018-06-15T23:37:43.644Z,28.70
2018-06-15T23:40:12.453Z,30.40
2018-06-15T23:42:41.039Z,31.63
2018-06-15T23:45:09.577Z,41.87
2018-06-15T23:47:38.399Z,35.97
2018-06-15T23:50:07.959Z,33.40
2018-06-15T23:52:36.825Z,38.87
2018-06-15T23:55:05.724Z,42.47
2018-06-15T23:57:34.344Z,38.90
